LTAW

Details ICAO LTAW
Name TOKAT
Region Turkey
Timezone Europe/Istanbul (UTC+3.0)
Plans Departing 11
Arriving 12
Stats Elevation 1,831 ft / 558 m (AMSL)
Location 40.306280° 36.371089°
Runways 1
Magnetic Variation 6.031° E
Sunrise 2018-05-25 02:12:15 UTC / 2018-05-25 05:12:15 Local
Sunset 2018-05-25 16:53:31 UTC / 2018-05-25 19:53:31 Local
Advertisement - Login to hide

Runways

ID Width Length Bearing (true) Bearing (mag) Surface Threshold Offset Overrun Length
04 98 ft / 30 m 5,295 ft / 1,614 m 49.07° 43.04° Asphalt 0 ft / 0 m 123 ft / 37 m
22 98 ft / 30 m 5,295 ft / 1,614 m 229.08° 223.05° Asphalt 0 ft / 0 m 108 ft / 33 m

Map

Weather


0- 5 10 15 20 25 30 35+ Temperature / ° C

Clouds and Precipitation
Forecast for 2018-05-25 06:00 UTC. Updated an hour ago

Ground ~20,000 ft ~40,000 ft Winds

METAR

LTAW 250550Z VRB02KT CAVOK 22/14 Q1010

TAF

Not found

Frequencies

Tower 118.70 MHz TWR
Warning: Do not use this data for real-world aviation or navigation. No guarantee of current accuracy is given.